北海道METAR電文


稚内(RJCW)
02/26 18:00
METAR RJCW 260900Z 07012KT 2000 -SHSN FEW005 SCT015 BKN020 M06/M08
Q1026 RMK 1ST005 4ST015 7CU020 A3032=

利尻(RJER)
02/26 16:00
RJER 260700Z 08020KT 9999 FEW015 BKNXXX M05/M11 Q1025 RMK A3027=

紋別(RJEB)
02/26 16:00
METAR RJEB 260700Z 05004KT 1000 R32/1400VP2000U -SHSN FEW004 SCT008
BKN011 M06/M06 Q1026 RMK 1ST004 3ST008 7ST011 A3030=

女満別(RJCM)
02/26 20:48
RJCM 261148Z 33004KT 0900 R36/1400V2000D SHSN FEW003 SCT006
BKN009 M05/M05 Q1024 RMK 1ST003 3ST006 5ST009 A3026=

中標津(RJCN)
02/26 18:00
METAR RJCN 260900Z 03014KT 1500 R08/P2000N -SN FEW003 SCT005 BKN007
M04/M05 Q1021 RMK 1ST003 3ST005 7ST007 A3017=

釧路(RJCK)
02/26 20:33
RJCK 261133Z 02016KT 1600 -SN FEW003 BKN006 BKN010 M04/M05
Q1021 RMK 1ST003 5ST006 7ST010 A3015=

十勝(RJCT)
02/26 20:00
METAR RJCT 261100Z NIL=

帯広(RJCB)
02/26 20:00
METAR RJCB 261100Z 34013KT 0700 R35/1600D SN VV007 M06/M07 Q1022 RMK
A3019=

旭川M(RJCA)
02/26 20:00
METAR RJCA 261100Z NIL=

旭川C(RJEC)
02/26 20:00
METAR RJEC 261100Z 34011KT 2000 R34/1400VP2000N -SHSN FEW001 SCT012
BKN025 M07/M08 Q1021 RMK 1ST001 4ST012 6CU025 A3015=

丘珠(RJCO)
02/26 20:00
METAR RJCO 261100Z 05004KT 2000 -SN FEW004 BKN015 BKN025 M03/M03
Q1023 RMK 1ST004 5ST015 7SC025 A3021=

新千歳(RJCC)
02/26 20:30
METAR RJCC 261130Z 34018KT 2400 -SN DRSN FEW005 BKN018 M05/M06 Q1020
RMK 1ST005 7ST018 A3012=

千歳(RJCJ)
02/26 20:40
RJCJ 261140Z 34016KT 3000 -SN BR DRSN FEW006 BKN015 OVC025
M05/M06 Q1020 RMK 1ST006 6ST015 8SC025 A3013=

奥尻(RJEO)
02/26 14:00
RJEO 260500Z 35015KT 9999 SCT030 03/M05 Q1019 RMK A3009=

函館(RJCH)
02/26 20:51
RJCH 261151Z AUTO 31001KT 6000 FEW030 SCT031 BKN041 M01/M02
Q1018 RMK A3006=
Copyright(c) 2014 International Meteorological & Oceanographic Consultants Co,.Ltd. All Rights Reserved. Design by http://f-tpl.com